sensor_id;sensor_type;location;lat;lon;timestamp;P1;durP1;ratioP1;P2;durP2;ratioP2
43042;SDS011;28667;50.758;6.096;2022-07-01T00:01:28;3.45;;;3.15;;
43042;SDS011;28667;50.758;6.096;2022-07-01T00:03:55;3.40;;;3.10;;
43042;SDS011;28667;50.758;6.096;2022-07-01T00:06:22;3.30;;;3.00;;
43042;SDS011;28667;50.758;6.096;2022-07-01T00:08:49;3.75;;;3.05;;
43042;SDS011;28667;50.758;6.096;2022-07-01T00:11:15;3.30;;;3.00;;
43042;SDS011;28667;50.758;6.096;2022-07-01T00:13:41;4.47;;;2.90;;
43042;SDS011;28667;50.758;6.096;2022-07-01T00:16:07;3.92;;;2.95;;
43042;SDS011;28667;50.758;6.096;2022-07-01T00:18:34;3.50;;;3.20;;
43042;SDS011;28667;50.758;6.096;2022-07-01T00:20:59;3.42;;;3.13;;
43042;SDS011;28667;50.758;6.096;2022-07-01T00:23:28;4.13;;;3.22;;
43042;SDS011;28667;50.758;6.096;2022-07-01T00:25:55;2.88;;;2.67;;
43042;SDS011;28667;50.758;6.096;2022-07-01T00:28:21;3.42;;;2.72;;
43042;SDS011;28667;50.758;6.096;2022-07-01T00:30:47;4.60;;;3.08;;
43042;SDS011;28667;50.758;6.096;2022-07-01T00:33:13;4.45;;;3.15;;
43042;SDS011;28667;50.758;6.096;2022-07-01T00:35:39;3.35;;;3.15;;
43042;SDS011;28667;50.758;6.096;2022-07-01T00:38:06;3.78;;;2.92;;
43042;SDS011;28667;50.758;6.096;2022-07-01T00:40:32;3.75;;;3.13;;
43042;SDS011;28667;50.758;6.096;2022-07-01T00:42:59;2.55;;;2.35;;
43042;SDS011;28667;50.758;6.096;2022-07-01T00:45:25;3.38;;;3.17;;
43042;SDS011;28667;50.758;6.096;2022-07-01T00:47:51;3.25;;;2.90;;
43042;SDS011;28667;50.758;6.096;2022-07-01T00:50:18;5.80;;;2.70;;
43042;SDS011;28667;50.758;6.096;2022-07-01T00:52:45;3.80;;;3.38;;
43042;SDS011;28667;50.758;6.096;2022-07-01T00:55:12;3.72;;;3.33;;
43042;SDS011;28667;50.758;6.096;2022-07-01T00:57:40;3.22;;;2.92;;
43042;SDS011;28667;50.758;6.096;2022-07-01T01:00:17;3.60;;;3.20;;
43042;SDS011;28667;50.758;6.096;2022-07-01T01:02:48;7.15;;;3.55;;
43042;SDS011;28667;50.758;6.096;2022-07-01T01:05:14;5.05;;;3.55;;
43042;SDS011;28667;50.758;6.096;2022-07-01T01:07:43;4.68;;;3.30;;
43042;SDS011;28667;50.758;6.096;2022-07-01T01:10:10;3.33;;;3.10;;
43042;SDS011;28667;50.758;6.096;2022-07-01T01:12:36;4.43;;;2.97;;
43042;SDS011;28667;50.758;6.096;2022-07-01T01:15:02;3.90;;;3.55;;
43042;SDS011;28667;50.758;6.096;2022-07-01T01:17:30;6.63;;;3.47;;
43042;SDS011;28667;50.758;6.096;2022-07-01T01:19:56;6.57;;;3.58;;
43042;SDS011;28667;50.758;6.096;2022-07-01T01:22:22;4.15;;;3.28;;
43042;SDS011;28667;50.758;6.096;2022-07-01T01:24:48;4.90;;;3.60;;
43042;SDS011;28667;50.758;6.096;2022-07-01T01:27:14;4.28;;;3.75;;
43042;SDS011;28667;50.758;6.096;2022-07-01T01:29:41;5.43;;;3.92;;
43042;SDS011;28667;50.758;6.096;2022-07-01T01:32:11;6.45;;;3.63;;
43042;SDS011;28667;50.758;6.096;2022-07-01T01:34:38;3.90;;;3.55;;
43042;SDS011;28667;50.758;6.096;2022-07-01T01:37:06;14.23;;;4.35;;
43042;SDS011;28667;50.758;6.096;2022-07-01T01:39:33;4.38;;;3.78;;
43042;SDS011;28667;50.758;6.096;2022-07-01T01:41:59;4.00;;;3.55;;
43042;SDS011;28667;50.758;6.096;2022-07-01T01:44:26;6.35;;;3.72;;
43042;SDS011;28667;50.758;6.096;2022-07-01T01:46:52;11.05;;;3.83;;
43042;SDS011;28667;50.758;6.096;2022-07-01T01:49:18;4.38;;;3.97;;
43042;SDS011;28667;50.758;6.096;2022-07-01T01:51:44;4.40;;;3.42;;
43042;SDS011;28667;50.758;6.096;2022-07-01T01:54:11;5.13;;;3.60;;
43042;SDS011;28667;50.758;6.096;2022-07-01T01:56:37;5.80;;;4.10;;
43042;SDS011;28667;50.758;6.096;2022-07-01T01:59:03;5.18;;;3.30;;
43042;SDS011;28667;50.758;6.096;2022-07-01T02:01:30;5.38;;;3.47;;
43042;SDS011;28667;50.758;6.096;2022-07-01T02:03:56;3.58;;;3.13;;
43042;SDS011;28667;50.758;6.096;2022-07-01T02:06:24;4.07;;;2.88;;
43042;SDS011;28667;50.758;6.096;2022-07-01T02:08:51;3.95;;;3.25;;
43042;SDS011;28667;50.758;6.096;2022-07-01T02:11:17;5.03;;;3.30;;
43042;SDS011;28667;50.758;6.096;2022-07-01T02:13:43;8.80;;;3.95;;
43042;SDS011;28667;50.758;6.096;2022-07-01T02:16:10;3.05;;;2.75;;
43042;SDS011;28667;50.758;6.096;2022-07-01T02:18:36;3.38;;;3.08;;
43042;SDS011;28667;50.758;6.096;2022-07-01T02:21:02;2.90;;;2.58;;
43042;SDS011;28667;50.758;6.096;2022-07-01T02:23:28;5.40;;;2.78;;
43042;SDS011;28667;50.758;6.096;2022-07-01T02:25:54;4.40;;;3.50;;
43042;SDS011;28667;50.758;6.096;2022-07-01T02:28:21;3.50;;;2.53;;
43042;SDS011;28667;50.758;6.096;2022-07-01T02:30:47;4.63;;;2.53;;
43042;SDS011;28667;50.758;6.096;2022-07-01T02:33:13;5.90;;;3.38;;
43042;SDS011;28667;50.758;6.096;2022-07-01T02:35:40;3.88;;;3.58;;
43042;SDS011;28667;50.758;6.096;2022-07-01T02:38:07;3.95;;;3.38;;
43042;SDS011;28667;50.758;6.096;2022-07-01T02:40:34;5.45;;;3.05;;
43042;SDS011;28667;50.758;6.096;2022-07-01T02:43:03;3.90;;;3.20;;
43042;SDS011;28667;50.758;6.096;2022-07-01T02:45:30;4.88;;;3.63;;
43042;SDS011;28667;50.758;6.096;2022-07-01T02:47:55;3.10;;;2.80;;
43042;SDS011;28667;50.758;6.096;2022-07-01T02:50:21;4.03;;;3.70;;
43042;SDS011;28667;50.758;6.096;2022-07-01T02:52:48;4.18;;;3.70;;
43042;SDS011;28667;50.758;6.096;2022-07-01T02:55:14;5.00;;;3.28;;
43042;SDS011;28667;50.758;6.096;2022-07-01T02:57:40;4.88;;;3.20;;
43042;SDS011;28667;50.758;6.096;2022-07-01T03:00:12;3.80;;;3.50;;
43042;SDS011;28667;50.758;6.096;2022-07-01T03:02:39;5.60;;;3.45;;
43042;SDS011;28667;50.758;6.096;2022-07-01T03:05:06;4.05;;;3.35;;
43042;SDS011;28667;50.758;6.096;2022-07-01T03:07:33;5.00;;;3.00;;
43042;SDS011;28667;50.758;6.096;2022-07-01T03:10:01;3.17;;;2.95;;
43042;SDS011;28667;50.758;6.096;2022-07-01T03:12:28;4.32;;;2.55;;
43042;SDS011;28667;50.758;6.096;2022-07-01T03:14:56;5.28;;;2.90;;
43042;SDS011;28667;50.758;6.096;2022-07-01T03:17:27;4.47;;;2.88;;
43042;SDS011;28667;50.758;6.096;2022-07-01T03:19:55;5.15;;;2.80;;
43042;SDS011;28667;50.758;6.096;2022-07-01T03:22:22;4.90;;;3.17;;
43042;SDS011;28667;50.758;6.096;2022-07-01T03:24:50;7.43;;;3.70;;
43042;SDS011;28667;50.758;6.096;2022-07-01T03:27:17;3.63;;;2.50;;
43042;SDS011;28667;50.758;6.096;2022-07-01T03:29:44;5.70;;;3.33;;
43042;SDS011;28667;50.758;6.096;2022-07-01T03:32:10;5.22;;;2.72;;
43042;SDS011;28667;50.758;6.096;2022-07-01T03:34:38;4.50;;;3.00;;
43042;SDS011;28667;50.758;6.096;2022-07-01T03:37:05;3.88;;;2.95;;
43042;SDS011;28667;50.758;6.096;2022-07-01T03:39:32;3.42;;;3.13;;
43042;SDS011;28667;50.758;6.096;2022-07-01T03:41:59;4.40;;;3.10;;
43042;SDS011;28667;50.758;6.096;2022-07-01T03:44:26;6.85;;;3.28;;
43042;SDS011;28667;50.758;6.096;2022-07-01T03:46:52;3.38;;;3.08;;
43042;SDS011;28667;50.758;6.096;2022-07-01T03:49:19;3.40;;;3.08;;
43042;SDS011;28667;50.758;6.096;2022-07-01T03:51:46;3.47;;;2.70;;
43042;SDS011;28667;50.758;6.096;2022-07-01T03:54:12;3.38;;;3.08;;
43042;SDS011;28667;50.758;6.096;2022-07-01T03:59:35;4.45;;;3.20;;
43042;SDS011;28667;50.758;6.096;2022-07-01T04:02:02;3.53;;;3.20;;
43042;SDS011;28667;50.758;6.096;2022-07-01T04:04:29;6.53;;;3.30;;
43042;SDS011;28667;50.758;6.096;2022-07-01T04:06:57;3.60;;;3.00;;
43042;SDS011;28667;50.758;6.096;2022-07-01T04:09:25;3.08;;;2.50;;
43042;SDS011;28667;50.758;6.096;2022-07-01T04:11:52;5.13;;;3.20;;
43042;SDS011;28667;50.758;6.096;2022-07-01T04:14:19;6.68;;;3.20;;
43042;SDS011;28667;50.758;6.096;2022-07-01T04:16:45;5.45;;;3.10;;
43042;SDS011;28667;50.758;6.096;2022-07-01T04:19:13;3.13;;;2.85;;
43042;SDS011;28667;50.758;6.096;2022-07-01T04:21:40;4.40;;;3.00;;
43042;SDS011;28667;50.758;6.096;2022-07-01T04:24:25;3.00;;;2.80;;
43042;SDS011;28667;50.758;6.096;2022-07-01T04:26:52;3.78;;;2.70;;
43042;SDS011;28667;50.758;6.096;2022-07-01T04:29:18;3.10;;;2.55;;
43042;SDS011;28667;50.758;6.096;2022-07-01T04:31:45;3.63;;;1.85;;
43042;SDS011;28667;50.758;6.096;2022-07-01T04:34:11;3.28;;;2.45;;
43042;SDS011;28667;50.758;6.096;2022-07-01T04:36:37;3.92;;;2.38;;
43042;SDS011;28667;50.758;6.096;2022-07-01T04:39:04;3.08;;;2.80;;
43042;SDS011;28667;50.758;6.096;2022-07-01T04:41:31;3.67;;;2.63;;
43042;SDS011;28667;50.758;6.096;2022-07-01T04:44:16;3.22;;;2.88;;
43042;SDS011;28667;50.758;6.096;2022-07-01T04:46:44;4.30;;;2.33;;
43042;SDS011;28667;50.758;6.096;2022-07-01T04:49:10;2.33;;;2.10;;
43042;SDS011;28667;50.758;6.096;2022-07-01T04:51:37;2.75;;;2.47;;
43042;SDS011;28667;50.758;6.096;2022-07-01T04:54:03;5.72;;;2.58;;
43042;SDS011;28667;50.758;6.096;2022-07-01T04:56:31;2.70;;;2.25;;
43042;SDS011;28667;50.758;6.096;2022-07-01T04:58:59;3.17;;;2.53;;
43042;SDS011;28667;50.758;6.096;2022-07-01T05:01:26;3.30;;;2.20;;
43042;SDS011;28667;50.758;6.096;2022-07-01T05:03:54;7.25;;;2.55;;
43042;SDS011;28667;50.758;6.096;2022-07-01T05:06:21;3.72;;;2.50;;
43042;SDS011;28667;50.758;6.096;2022-07-01T05:08:48;4.13;;;2.92;;
43042;SDS011;28667;50.758;6.096;2022-07-01T05:11:14;4.65;;;2.70;;
43042;SDS011;28667;50.758;6.096;2022-07-01T05:13:40;5.00;;;2.72;;
43042;SDS011;28667;50.758;6.096;2022-07-01T05:16:07;3.00;;;2.50;;
43042;SDS011;28667;50.758;6.096;2022-07-01T05:18:34;4.68;;;2.60;;
43042;SDS011;28667;50.758;6.096;2022-07-01T05:21:20;4.20;;;2.60;;
43042;SDS011;28667;50.758;6.096;2022-07-01T05:24:05;4.20;;;2.15;;
43042;SDS011;28667;50.758;6.096;2022-07-01T05:26:32;4.50;;;2.60;;
43042;SDS011;28667;50.758;6.096;2022-07-01T05:28:58;2.10;;;1.90;;
43042;SDS011;28667;50.758;6.096;2022-07-01T05:31:25;4.15;;;2.58;;
43042;SDS011;28667;50.758;6.096;2022-07-01T05:33:51;3.58;;;2.20;;
43042;SDS011;28667;50.758;6.096;2022-07-01T05:36:17;4.43;;;2.08;;
43042;SDS011;28667;50.758;6.096;2022-07-01T05:38:44;5.80;;;2.10;;
43042;SDS011;28667;50.758;6.096;2022-07-01T05:41:09;4.20;;;2.30;;
43042;SDS011;28667;50.758;6.096;2022-07-01T05:43:36;2.47;;;1.85;;
43042;SDS011;28667;50.758;6.096;2022-07-01T05:46:02;6.30;;;2.30;;
43042;SDS011;28667;50.758;6.096;2022-07-01T05:48:28;3.33;;;1.83;;
43042;SDS011;28667;50.758;6.096;2022-07-01T05:50:54;4.43;;;2.17;;
43042;SDS011;28667;50.758;6.096;2022-07-01T05:53:21;2.75;;;2.40;;
43042;SDS011;28667;50.758;6.096;2022-07-01T05:55:47;2.28;;;2.00;;
43042;SDS011;28667;50.758;6.096;2022-07-01T05:58:14;3.03;;;2.22;;
43042;SDS011;28667;50.758;6.096;2022-07-01T06:00:40;2.85;;;2.20;;
43042;SDS011;28667;50.758;6.096;2022-07-01T06:03:07;3.20;;;2.17;;
43042;SDS011;28667;50.758;6.096;2022-07-01T06:05:34;4.55;;;1.98;;
43042;SDS011;28667;50.758;6.096;2022-07-01T06:08:00;3.58;;;2.10;;
43042;SDS011;28667;50.758;6.096;2022-07-01T06:10:27;3.50;;;1.90;;
43042;SDS011;28667;50.758;6.096;2022-07-01T06:12:53;2.45;;;2.05;;
43042;SDS011;28667;50.758;6.096;2022-07-01T06:15:19;4.25;;;2.42;;
43042;SDS011;28667;50.758;6.096;2022-07-01T06:17:45;6.22;;;2.40;;
43042;SDS011;28667;50.758;6.096;2022-07-01T06:20:11;3.63;;;2.65;;
43042;SDS011;28667;50.758;6.096;2022-07-01T06:22:37;3.03;;;2.08;;
43042;SDS011;28667;50.758;6.096;2022-07-01T06:25:03;4.40;;;2.58;;
43042;SDS011;28667;50.758;6.096;2022-07-01T06:27:30;4.18;;;2.55;;
43042;SDS011;28667;50.758;6.096;2022-07-01T06:29:56;3.88;;;2.40;;
43042;SDS011;28667;50.758;6.096;2022-07-01T06:32:22;4.18;;;2.55;;
43042;SDS011;28667;50.758;6.096;2022-07-01T06:34:48;2.80;;;2.42;;
43042;SDS011;28667;50.758;6.096;2022-07-01T06:37:15;5.82;;;3.30;;
43042;SDS011;28667;50.758;6.096;2022-07-01T06:39:41;3.30;;;2.85;;
43042;SDS011;28667;50.758;6.096;2022-07-01T06:42:07;5.15;;;3.35;;
43042;SDS011;28667;50.758;6.096;2022-07-01T06:44:34;5.97;;;3.17;;
43042;SDS011;28667;50.758;6.096;2022-07-01T06:47:00;3.95;;;3.30;;
43042;SDS011;28667;50.758;6.096;2022-07-01T06:49:26;8.02;;;3.30;;
43042;SDS011;28667;50.758;6.096;2022-07-01T06:51:52;4.63;;;2.72;;
43042;SDS011;28667;50.758;6.096;2022-07-01T06:54:18;5.05;;;2.88;;
43042;SDS011;28667;50.758;6.096;2022-07-01T06:56:44;3.42;;;3.10;;
43042;SDS011;28667;50.758;6.096;2022-07-01T06:59:10;3.40;;;2.63;;
43042;SDS011;28667;50.758;6.096;2022-07-01T07:01:36;4.20;;;2.78;;
43042;SDS011;28667;50.758;6.096;2022-07-01T07:04:02;6.55;;;2.60;;
43042;SDS011;28667;50.758;6.096;2022-07-01T07:06:29;3.78;;;2.30;;
43042;SDS011;28667;50.758;6.096;2022-07-01T07:08:55;4.85;;;2.65;;
43042;SDS011;28667;50.758;6.096;2022-07-01T07:11:21;6.25;;;2.50;;
43042;SDS011;28667;50.758;6.096;2022-07-01T07:13:48;3.10;;;2.30;;
43042;SDS011;28667;50.758;6.096;2022-07-01T07:16:14;4.30;;;2.30;;
43042;SDS011;28667;50.758;6.096;2022-07-01T07:18:40;7.28;;;2.45;;
43042;SDS011;28667;50.758;6.096;2022-07-01T07:21:06;3.65;;;2.10;;
43042;SDS011;28667;50.758;6.096;2022-07-01T07:23:33;4.93;;;2.10;;
43042;SDS011;28667;50.758;6.096;2022-07-01T07:25:59;2.95;;;2.03;;
43042;SDS011;28667;50.758;6.096;2022-07-01T07:28:25;4.55;;;2.20;;
43042;SDS011;28667;50.758;6.096;2022-07-01T07:30:51;4.57;;;1.90;;
43042;SDS011;28667;50.758;6.096;2022-07-01T07:33:17;3.60;;;2.00;;
43042;SDS011;28667;50.758;6.096;2022-07-01T07:35:43;3.58;;;2.45;;
43042;SDS011;28667;50.758;6.096;2022-07-01T07:38:10;2.28;;;1.92;;
43042;SDS011;28667;50.758;6.096;2022-07-01T07:40:36;3.58;;;2.13;;
43042;SDS011;28667;50.758;6.096;2022-07-01T07:43:03;3.50;;;1.80;;
43042;SDS011;28667;50.758;6.096;2022-07-01T07:45:31;2.70;;;1.60;;
43042;SDS011;28667;50.758;6.096;2022-07-01T07:47:57;4.10;;;2.10;;
43042;SDS011;28667;50.758;6.096;2022-07-01T07:50:24;2.90;;;1.90;;
43042;SDS011;28667;50.758;6.096;2022-07-01T07:52:50;3.30;;;1.67;;
43042;SDS011;28667;50.758;6.096;2022-07-01T07:55:16;3.17;;;1.65;;
43042;SDS011;28667;50.758;6.096;2022-07-01T07:57:42;2.78;;;2.03;;
43042;SDS011;28667;50.758;6.096;2022-07-01T08:00:09;2.88;;;1.67;;
43042;SDS011;28667;50.758;6.096;2022-07-01T08:02:38;1.63;;;1.27;;
43042;SDS011;28667;50.758;6.096;2022-07-01T08:05:06;3.58;;;1.50;;
43042;SDS011;28667;50.758;6.096;2022-07-01T08:07:37;5.43;;;2.03;;
43042;SDS011;28667;50.758;6.096;2022-07-01T08:10:05;2.95;;;1.50;;
43042;SDS011;28667;50.758;6.096;2022-07-01T08:12:33;3.03;;;1.60;;
43042;SDS011;28667;50.758;6.096;2022-07-01T08:15:00;6.03;;;1.55;;
43042;SDS011;28667;50.758;6.096;2022-07-01T08:17:26;5.43;;;1.23;;
43042;SDS011;28667;50.758;6.096;2022-07-01T08:19:53;5.10;;;1.30;;
43042;SDS011;28667;50.758;6.096;2022-07-01T08:22:19;1.83;;;1.23;;
43042;SDS011;28667;50.758;6.096;2022-07-01T08:24:45;1.58;;;1.00;;
43042;SDS011;28667;50.758;6.096;2022-07-01T08:27:11;1.83;;;1.23;;
43042;SDS011;28667;50.758;6.096;2022-07-01T08:29:40;3.05;;;1.52;;
43042;SDS011;28667;50.758;6.096;2022-07-01T08:32:06;1.35;;;1.10;;
43042;SDS011;28667;50.758;6.096;2022-07-01T08:34:34;1.50;;;0.95;;
43042;SDS011;28667;50.758;6.096;2022-07-01T08:37:02;4.60;;;1.40;;
43042;SDS011;28667;50.758;6.096;2022-07-01T08:39:29;2.70;;;1.35;;
43042;SDS011;28667;50.758;6.096;2022-07-01T08:41:55;1.80;;;1.17;;
43042;SDS011;28667;50.758;6.096;2022-07-01T08:44:22;2.75;;;1.33;;
43042;SDS011;28667;50.758;6.096;2022-07-01T08:46:48;2.13;;;1.40;;
43042;SDS011;28667;50.758;6.096;2022-07-01T08:49:15;6.93;;;1.88;;
43042;SDS011;28667;50.758;6.096;2022-07-01T08:51:42;8.45;;;1.63;;
43042;SDS011;28667;50.758;6.096;2022-07-01T08:54:09;2.00;;;1.20;;
43042;SDS011;28667;50.758;6.096;2022-07-01T08:56:35;2.88;;;1.48;;
43042;SDS011;28667;50.758;6.096;2022-07-01T08:59:22;1.63;;;1.20;;
43042;SDS011;28667;50.758;6.096;2022-07-01T09:01:59;3.25;;;1.02;;
43042;SDS011;28667;50.758;6.096;2022-07-01T09:04:27;1.50;;;1.40;;
43042;SDS011;28667;50.758;6.096;2022-07-01T09:06:58;4.40;;;1.60;;
43042;SDS011;28667;50.758;6.096;2022-07-01T09:09:35;2.17;;;1.70;;
43042;SDS011;28667;50.758;6.096;2022-07-01T09:12:02;1.80;;;1.70;;
43042;SDS011;28667;50.758;6.096;2022-07-01T09:14:30;1.50;;;1.40;;
43042;SDS011;28667;50.758;6.096;2022-07-01T09:16:58;2.95;;;1.88;;
43042;SDS011;28667;50.758;6.096;2022-07-01T09:19:26;1.77;;;0.93;;
43042;SDS011;28667;50.758;6.096;2022-07-01T09:21:55;2.22;;;1.20;;
43042;SDS011;28667;50.758;6.096;2022-07-01T09:24:27;1.10;;;0.93;;
43042;SDS011;28667;50.758;6.096;2022-07-01T09:29:26;1.33;;;1.05;;
43042;SDS011;28667;50.758;6.096;2022-07-01T09:31:57;2.30;;;1.13;;
43042;SDS011;28667;50.758;6.096;2022-07-01T09:34:24;4.45;;;1.15;;
43042;SDS011;28667;50.758;6.096;2022-07-01T09:36:56;3.13;;;1.10;;
43042;SDS011;28667;50.758;6.096;2022-07-01T09:39:24;2.25;;;1.08;;
43042;SDS011;28667;50.758;6.096;2022-07-01T09:41:53;4.95;;;1.50;;
43042;SDS011;28667;50.758;6.096;2022-07-01T09:44:20;2.35;;;1.42;;
43042;SDS011;28667;50.758;6.096;2022-07-01T09:46:53;5.28;;;1.98;;
43042;SDS011;28667;50.758;6.096;2022-07-01T09:49:21;2.75;;;1.50;;
43042;SDS011;28667;50.758;6.096;2022-07-01T09:51:48;2.53;;;1.35;;
43042;SDS011;28667;50.758;6.096;2022-07-01T09:54:16;1.55;;;1.17;;
43042;SDS011;28667;50.758;6.096;2022-07-01T09:56:43;3.45;;;1.45;;
43042;SDS011;28667;50.758;6.096;2022-07-01T09:59:09;1.70;;;1.10;;
43042;SDS011;28667;50.758;6.096;2022-07-01T10:01:36;2.90;;;1.40;;
43042;SDS011;28667;50.758;6.096;2022-07-01T10:04:05;4.13;;;1.58;;
43042;SDS011;28667;50.758;6.096;2022-07-01T10:06:42;4.72;;;1.35;;
43042;SDS011;28667;50.758;6.096;2022-07-01T10:12:50;1.85;;;1.08;;
43042;SDS011;28667;50.758;6.096;2022-07-01T10:14:50;3.20;;;1.35;;
43042;SDS011;28667;50.758;6.096;2022-07-01T10:17:31;2.38;;;1.20;;
43042;SDS011;28667;50.758;6.096;2022-07-01T10:20:13;2.92;;;1.35;;
43042;SDS011;28667;50.758;6.096;2022-07-01T10:22:44;1.92;;;0.98;;
43042;SDS011;28667;50.758;6.096;2022-07-01T10:41:37;2.67;;;0.75;;
43042;SDS011;28667;50.758;6.096;2022-07-01T10:44:23;4.60;;;1.00;;
43042;SDS011;28667;50.758;6.096;2022-07-01T10:46:54;2.17;;;0.95;;
43042;SDS011;28667;50.758;6.096;2022-07-01T10:59:41;1.30;;;0.60;;
43042;SDS011;28667;50.758;6.096;2022-07-01T11:02:21;2.00;;;0.60;;
43042;SDS011;28667;50.758;6.096;2022-07-01T11:05:14;2.72;;;0.98;;
43042;SDS011;28667;50.758;6.096;2022-07-01T11:07:41;3.70;;;0.80;;
43042;SDS011;28667;50.758;6.096;2022-07-01T11:10:11;3.65;;;0.77;;
43042;SDS011;28667;50.758;6.096;2022-07-01T11:12:40;1.23;;;0.60;;
43042;SDS011;28667;50.758;6.096;2022-07-01T11:15:09;2.13;;;0.63;;
43042;SDS011;28667;50.758;6.096;2022-07-01T11:17:41;2.53;;;0.90;;
43042;SDS011;28667;50.758;6.096;2022-07-01T11:20:09;3.58;;;0.95;;
43042;SDS011;28667;50.758;6.096;2022-07-01T11:22:36;3.33;;;0.90;;
43042;SDS011;28667;50.758;6.096;2022-07-01T11:27:12;2.33;;;0.90;;
43042;SDS011;28667;50.758;6.096;2022-07-01T11:29:38;1.85;;;0.90;;
43042;SDS011;28667;50.758;6.096;2022-07-01T11:32:04;1.48;;;0.75;;
43042;SDS011;28667;50.758;6.096;2022-07-01T11:34:31;1.40;;;0.60;;
43042;SDS011;28667;50.758;6.096;2022-07-01T11:36:57;2.17;;;0.80;;
43042;SDS011;28667;50.758;6.096;2022-07-01T11:39:42;2.53;;;0.40;;
43042;SDS011;28667;50.758;6.096;2022-07-01T11:42:09;2.20;;;0.70;;
43042;SDS011;28667;50.758;6.096;2022-07-01T11:47:10;1.40;;;0.70;;
43042;SDS011;28667;50.758;6.096;2022-07-01T11:49:44;1.85;;;0.70;;
43042;SDS011;28667;50.758;6.096;2022-07-01T11:52:11;0.95;;;0.50;;
43042;SDS011;28667;50.758;6.096;2022-07-01T11:54:38;0.47;;;0.47;;
43042;SDS011;28667;50.758;6.096;2022-07-01T11:57:12;1.20;;;0.50;;
43042;SDS011;28667;50.758;6.096;2022-07-01T11:59:38;2.17;;;0.85;;
43042;SDS011;28667;50.758;6.096;2022-07-01T12:02:06;1.95;;;0.50;;
43042;SDS011;28667;50.758;6.096;2022-07-01T12:04:34;1.25;;;0.60;;
43042;SDS011;28667;50.758;6.096;2022-07-01T12:07:00;1.33;;;0.60;;
43042;SDS011;28667;50.758;6.096;2022-07-01T12:09:27;0.90;;;0.50;;
43042;SDS011;28667;50.758;6.096;2022-07-01T12:11:53;0.32;;;0.30;;
43042;SDS011;28667;50.758;6.096;2022-07-01T12:14:20;1.33;;;0.52;;
43042;SDS011;28667;50.758;6.096;2022-07-01T12:16:52;1.58;;;0.30;;
43042;SDS011;28667;50.758;6.096;2022-07-01T12:19:19;0.45;;;0.20;;
43042;SDS011;28667;50.758;6.096;2022-07-01T12:24:16;1.27;;;0.50;;
43042;SDS011;28667;50.758;6.096;2022-07-01T12:26:48;0.47;;;0.25;;
43042;SDS011;28667;50.758;6.096;2022-07-01T12:29:18;1.58;;;0.40;;
43042;SDS011;28667;50.758;6.096;2022-07-01T12:32:02;1.20;;;0.40;;
43042;SDS011;28667;50.758;6.096;2022-07-01T12:34:40;0.32;;;0.30;;
43042;SDS011;28667;50.758;6.096;2022-07-01T12:39:48;0.52;;;0.20;;
43042;SDS011;28667;50.758;6.096;2022-07-01T12:45:21;1.52;;;0.38;;
43042;SDS011;28667;50.758;6.096;2022-07-01T12:47:49;1.05;;;0.50;;
43042;SDS011;28667;50.758;6.096;2022-07-01T12:50:26;1.48;;;0.60;;
43042;SDS011;28667;50.758;6.096;2022-07-01T12:53:00;1.40;;;0.60;;
43042;SDS011;28667;50.758;6.096;2022-07-01T12:55:28;3.10;;;0.75;;
43042;SDS011;28667;50.758;6.096;2022-07-01T12:58:04;1.08;;;0.60;;
43042;SDS011;28667;50.758;6.096;2022-07-01T13:00:42;1.52;;;0.52;;
43042;SDS011;28667;50.758;6.096;2022-07-01T13:03:09;1.55;;;0.73;;
43042;SDS011;28667;50.758;6.096;2022-07-01T13:05:37;2.50;;;0.65;;
43042;SDS011;28667;50.758;6.096;2022-07-01T13:08:07;3.30;;;0.65;;
43042;SDS011;28667;50.758;6.096;2022-07-01T13:10:34;2.13;;;0.73;;
43042;SDS011;28667;50.758;6.096;2022-07-01T13:13:01;2.22;;;0.90;;
43042;SDS011;28667;50.758;6.096;2022-07-01T13:15:27;1.60;;;0.52;;
43042;SDS011;28667;50.758;6.096;2022-07-01T13:17:54;1.75;;;0.50;;
43042;SDS011;28667;50.758;6.096;2022-07-01T13:20:20;2.30;;;0.80;;
43042;SDS011;28667;50.758;6.096;2022-07-01T13:22:46;3.22;;;0.63;;
43042;SDS011;28667;50.758;6.096;2022-07-01T13:25:13;1.95;;;0.57;;
43042;SDS011;28667;50.758;6.096;2022-07-01T13:27:39;2.15;;;0.63;;
43042;SDS011;28667;50.758;6.096;2022-07-01T13:30:08;1.70;;;0.50;;
43042;SDS011;28667;50.758;6.096;2022-07-01T13:32:37;1.80;;;0.77;;
43042;SDS011;28667;50.758;6.096;2022-07-01T13:35:04;2.33;;;0.70;;
43042;SDS011;28667;50.758;6.096;2022-07-01T13:37:32;0.90;;;0.57;;
43042;SDS011;28667;50.758;6.096;2022-07-01T13:39:58;2.15;;;0.52;;
43042;SDS011;28667;50.758;6.096;2022-07-01T13:42:24;1.27;;;0.43;;
43042;SDS011;28667;50.758;6.096;2022-07-01T13:44:50;4.22;;;0.60;;
43042;SDS011;28667;50.758;6.096;2022-07-01T13:47:17;0.82;;;0.45;;
43042;SDS011;28667;50.758;6.096;2022-07-01T13:49:43;0.68;;;0.45;;
43042;SDS011;28667;50.758;6.096;2022-07-01T13:52:09;5.43;;;0.60;;
43042;SDS011;28667;50.758;6.096;2022-07-01T13:54:35;1.73;;;0.70;;
43042;SDS011;28667;50.758;6.096;2022-07-01T13:57:02;1.38;;;0.60;;
43042;SDS011;28667;50.758;6.096;2022-07-01T13:59:28;1.73;;;0.38;;
43042;SDS011;28667;50.758;6.096;2022-07-01T14:01:55;2.75;;;0.60;;
43042;SDS011;28667;50.758;6.096;2022-07-01T14:04:21;1.20;;;0.52;;
43042;SDS011;28667;50.758;6.096;2022-07-01T14:06:47;0.50;;;0.35;;
43042;SDS011;28667;50.758;6.096;2022-07-01T14:09:13;1.25;;;0.47;;
43042;SDS011;28667;50.758;6.096;2022-07-01T14:11:39;2.05;;;0.75;;
43042;SDS011;28667;50.758;6.096;2022-07-01T14:14:06;0.85;;;0.30;;
43042;SDS011;28667;50.758;6.096;2022-07-01T14:16:32;1.48;;;0.40;;
43042;SDS011;28667;50.758;6.096;2022-07-01T14:18:58;1.30;;;0.52;;
43042;SDS011;28667;50.758;6.096;2022-07-01T14:21:24;0.57;;;0.30;;
43042;SDS011;28667;50.758;6.096;2022-07-01T14:23:51;0.55;;;0.25;;
43042;SDS011;28667;50.758;6.096;2022-07-01T14:26:17;0.50;;;0.20;;
43042;SDS011;28667;50.758;6.096;2022-07-01T14:28:43;0.50;;;0.50;;
43042;SDS011;28667;50.758;6.096;2022-07-01T14:31:09;1.25;;;0.30;;
43042;SDS011;28667;50.758;6.096;2022-07-01T14:33:36;2.25;;;0.47;;
43042;SDS011;28667;50.758;6.096;2022-07-01T14:36:02;4.20;;;0.47;;
43042;SDS011;28667;50.758;6.096;2022-07-01T14:38:29;1.02;;;0.45;;
43042;SDS011;28667;50.758;6.096;2022-07-01T14:40:55;2.58;;;0.30;;
43042;SDS011;28667;50.758;6.096;2022-07-01T14:43:21;1.60;;;0.30;;
43042;SDS011;28667;50.758;6.096;2022-07-01T14:45:47;0.65;;;0.50;;
43042;SDS011;28667;50.758;6.096;2022-07-01T14:48:13;2.35;;;0.30;;
43042;SDS011;28667;50.758;6.096;2022-07-01T15:00:30;0.80;;;0.50;;
43042;SDS011;28667;50.758;6.096;2022-07-01T15:03:02;2.00;;;0.45;;
43042;SDS011;28667;50.758;6.096;2022-07-01T15:05:29;0.80;;;0.43;;
43042;SDS011;28667;50.758;6.096;2022-07-01T15:07:56;0.22;;;0.20;;
43042;SDS011;28667;50.758;6.096;2022-07-01T15:10:22;3.75;;;0.47;;
43042;SDS011;28667;50.758;6.096;2022-07-01T15:12:48;1.45;;;0.43;;
43042;SDS011;28667;50.758;6.096;2022-07-01T15:15:16;0.63;;;0.30;;
43042;SDS011;28667;50.758;6.096;2022-07-01T15:17:43;0.85;;;0.32;;
43042;SDS011;28667;50.758;6.096;2022-07-01T15:20:10;0.52;;;0.40;;
43042;SDS011;28667;50.758;6.096;2022-07-01T15:22:37;0.57;;;0.28;;
43042;SDS011;28667;50.758;6.096;2022-07-01T15:25:04;1.85;;;0.50;;
43042;SDS011;28667;50.758;6.096;2022-07-01T15:27:30;2.33;;;0.35;;
43042;SDS011;28667;50.758;6.096;2022-07-01T15:29:56;1.58;;;0.40;;
43042;SDS011;28667;50.758;6.096;2022-07-01T15:32:23;1.10;;;0.63;;
43042;SDS011;28667;50.758;6.096;2022-07-01T15:34:48;2.75;;;0.57;;
43042;SDS011;28667;50.758;6.096;2022-07-01T15:37:15;0.47;;;0.40;;
43042;SDS011;28667;50.758;6.096;2022-07-01T15:39:41;0.20;;;0.20;;
43042;SDS011;28667;50.758;6.096;2022-07-01T15:42:07;1.75;;;0.40;;
43042;SDS011;28667;50.758;6.096;2022-07-01T15:44:34;2.83;;;0.65;;
43042;SDS011;28667;50.758;6.096;2022-07-01T15:47:00;2.17;;;0.60;;
43042;SDS011;28667;50.758;6.096;2022-07-01T15:49:45;1.95;;;0.68;;